createdAt,value
2022-07-29T00:01:43.824Z,16.81
2022-07-29T00:04:12.324Z,16.79
2022-07-29T00:06:41.566Z,16.76
2022-07-29T00:09:09.777Z,16.72
2022-07-29T00:11:38.486Z,16.69
2022-07-29T00:14:06.919Z,16.65
2022-07-29T00:16:35.521Z,16.64
2022-07-29T00:19:04.807Z,16.63
2022-07-29T00:21:33.299Z,16.63
2022-07-29T00:24:01.509Z,16.61
2022-07-29T00:26:32.077Z,16.60
2022-07-29T00:29:32.040Z,16.58
2022-07-29T00:31:49.149Z,16.55
2022-07-29T00:34:36.038Z,16.54
2022-07-29T00:37:04.347Z,16.52
2022-07-29T00:39:32.689Z,16.50
2022-07-29T00:42:04.080Z,16.44
2022-07-29T00:44:33.903Z,16.39
2022-07-29T00:47:02.095Z,16.35
2022-07-29T00:49:30.428Z,16.31
2022-07-29T00:51:58.857Z,16.26
2022-07-29T00:54:27.352Z,16.20
2022-07-29T00:56:55.697Z,16.15
2022-07-29T00:59:24.573Z,16.09
2022-07-29T01:02:03.952Z,16.06
2022-07-29T01:04:33.320Z,16.02
2022-07-29T01:07:02.462Z,16.00
2022-07-29T01:09:34.476Z,15.99
2022-07-29T01:12:17.734Z,15.98
2022-07-29T01:14:47.316Z,15.97
2022-07-29T01:17:18.927Z,15.98
2022-07-29T01:19:52.307Z,15.98
2022-07-29T01:22:28.775Z,15.97
2022-07-29T01:25:06.827Z,15.98
2022-07-29T01:27:42.428Z,15.97
2022-07-29T01:30:10.805Z,15.96
2022-07-29T01:32:42.534Z,15.96
2022-07-29T01:35:16.906Z,15.94
2022-07-29T01:37:48.245Z,15.94
2022-07-29T01:40:23.327Z,15.93
2022-07-29T01:42:53.598Z,15.92
2022-07-29T01:45:25.940Z,15.90
2022-07-29T01:47:59.880Z,15.89
2022-07-29T01:50:29.389Z,15.88
2022-07-29T01:53:01.348Z,15.84
2022-07-29T01:55:32.228Z,15.81
2022-07-29T01:58:02.029Z,15.78
2022-07-29T02:00:31.823Z,15.75
2022-07-29T02:03:03.362Z,15.74
2022-07-29T02:05:32.321Z,15.74
2022-07-29T02:08:04.339Z,15.72
2022-07-29T02:10:34.507Z,15.69
2022-07-29T02:13:04.082Z,15.67
2022-07-29T02:15:34.218Z,15.66
2022-07-29T02:18:04.011Z,15.63
2022-07-29T02:20:32.481Z,15.60
2022-07-29T02:23:02.018Z,15.56
2022-07-29T02:25:38.278Z,15.54
2022-07-29T02:28:07.533Z,15.51
2022-07-29T02:30:39.985Z,15.46
2022-07-29T02:33:09.560Z,15.41
2022-07-29T02:35:38.601Z,15.38
2022-07-29T02:38:25.400Z,15.36
2022-07-29T02:40:55.042Z,15.31
2022-07-29T02:43:24.297Z,15.29
2022-07-29T02:45:53.800Z,15.24
2022-07-29T02:48:26.783Z,15.21
2022-07-29T02:50:59.143Z,15.16
2022-07-29T02:53:28.323Z,15.12
2022-07-29T02:55:58.564Z,15.12
2022-07-29T02:58:30.007Z,15.11
2022-07-29T03:01:00.739Z,15.10
2022-07-29T03:03:31.135Z,15.08
2022-07-29T03:06:00.982Z,15.09
2022-07-29T03:08:29.941Z,15.09
2022-07-29T03:10:58.431Z,15.09
2022-07-29T03:13:27.497Z,15.09
2022-07-29T03:15:56.965Z,15.09
2022-07-29T03:18:26.214Z,15.10
2022-07-29T03:20:54.513Z,15.09
2022-07-29T03:23:24.280Z,15.08
2022-07-29T03:25:52.981Z,15.08
2022-07-29T03:28:23.018Z,15.07
2022-07-29T03:30:55.680Z,15.06
2022-07-29T03:33:23.927Z,15.06
2022-07-29T03:35:52.164Z,15.03
2022-07-29T03:38:21.256Z,15.04
2022-07-29T03:40:52.660Z,15.06
2022-07-29T03:43:21.785Z,15.07
2022-07-29T03:45:52.515Z,15.09
2022-07-29T03:48:23.217Z,15.10
2022-07-29T03:50:52.266Z,15.09
2022-07-29T03:53:20.556Z,15.10
2022-07-29T03:55:53.458Z,15.11
2022-07-29T03:58:21.698Z,15.11
2022-07-29T04:00:50.733Z,15.12
2022-07-29T04:03:19.539Z,15.13
2022-07-29T04:05:59.523Z,15.16
2022-07-29T04:08:28.378Z,15.21
2022-07-29T04:10:56.763Z,15.25
2022-07-29T04:13:25.135Z,15.30
2022-07-29T04:15:53.829Z,15.35
2022-07-29T04:18:22.246Z,15.39
2022-07-29T04:20:50.846Z,15.44
2022-07-29T04:23:19.132Z,15.51
2022-07-29T04:25:47.614Z,15.61
2022-07-29T04:28:15.973Z,15.70
2022-07-29T04:30:45.425Z,15.75
2022-07-29T04:33:13.773Z,15.83
2022-07-29T04:35:47.144Z,15.91
2022-07-29T04:38:19.051Z,15.98
2022-07-29T04:40:47.318Z,16.05
2022-07-29T04:43:20.613Z,16.17
2022-07-29T04:45:51.554Z,16.29
2022-07-29T04:48:21.956Z,16.36
2022-07-29T04:50:52.784Z,16.44
2022-07-29T04:53:21.182Z,16.56
2022-07-29T04:55:49.537Z,16.68
2022-07-29T04:58:18.566Z,16.78
2022-07-29T05:00:46.911Z,16.87
2022-07-29T05:03:15.243Z,16.97
2022-07-29T05:05:44.384Z,17.05
2022-07-29T05:08:12.605Z,17.13
2022-07-29T05:10:40.834Z,17.24
2022-07-29T05:13:09.559Z,17.33
2022-07-29T05:15:38.217Z,17.44
2022-07-29T05:18:07.001Z,17.53
2022-07-29T05:20:35.616Z,17.60
2022-07-29T05:23:04.245Z,17.69
2022-07-29T05:25:42.945Z,17.79
2022-07-29T05:28:13.710Z,17.89
2022-07-29T05:30:42.475Z,17.98
2022-07-29T05:33:36.269Z,18.09
2022-07-29T05:36:00.912Z,18.16
2022-07-29T05:38:30.977Z,18.21
2022-07-29T05:40:59.793Z,18.26
2022-07-29T05:43:28.244Z,18.34
2022-07-29T05:45:56.701Z,18.37
2022-07-29T05:48:25.703Z,18.43
2022-07-29T05:50:54.168Z,18.48
2022-07-29T05:53:22.443Z,18.51
2022-07-29T05:55:51.143Z,18.57
2022-07-29T05:58:19.991Z,18.61
2022-07-29T06:00:48.294Z,18.61
2022-07-29T06:03:16.720Z,18.64
2022-07-29T06:05:45.034Z,18.68
2022-07-29T06:08:13.164Z,18.73
2022-07-29T06:10:41.513Z,18.79
2022-07-29T06:13:09.932Z,18.87
2022-07-29T06:15:38.251Z,18.93
2022-07-29T06:18:09.594Z,18.99
2022-07-29T06:20:39.379Z,19.02
2022-07-29T06:23:07.838Z,19.07
2022-07-29T06:25:37.094Z,19.14
2022-07-29T06:28:05.810Z,19.20
2022-07-29T06:30:34.342Z,19.27
2022-07-29T06:33:03.172Z,19.31
2022-07-29T06:35:38.515Z,19.36
2022-07-29T06:38:30.077Z,19.43
2022-07-29T06:41:04.106Z,19.49
2022-07-29T06:43:36.307Z,19.55
2022-07-29T06:46:20.436Z,19.62
2022-07-29T06:48:49.599Z,19.70
2022-07-29T06:51:22.474Z,19.77
2022-07-29T06:53:59.738Z,19.85
2022-07-29T06:56:31.826Z,19.96
2022-07-29T06:59:00.197Z,20.06
2022-07-29T07:01:30.339Z,20.16
2022-07-29T07:03:58.703Z,20.25
2022-07-29T07:06:27.310Z,20.33
2022-07-29T07:08:55.505Z,20.39
2022-07-29T07:11:23.847Z,20.46
2022-07-29T07:13:52.104Z,20.55
2022-07-29T07:16:20.401Z,20.63
2022-07-29T07:18:48.636Z,20.72
2022-07-29T07:21:19.012Z,20.80
2022-07-29T07:23:47.958Z,20.90
2022-07-29T07:26:16.685Z,21.00
2022-07-29T07:28:45.285Z,21.10
2022-07-29T07:31:14.703Z,21.19
2022-07-29T07:33:42.981Z,21.29
2022-07-29T07:36:11.398Z,21.38
2022-07-29T07:38:40.446Z,21.46
2022-07-29T07:41:08.685Z,21.52
2022-07-29T07:43:36.965Z,21.55
2022-07-29T07:46:05.340Z,21.60
2022-07-29T07:48:35.246Z,21.66
2022-07-29T07:51:04.297Z,21.70
2022-07-29T07:53:32.748Z,21.78
2022-07-29T07:56:11.372Z,21.88
2022-07-29T07:58:40.890Z,21.97
2022-07-29T08:01:12.172Z,22.06
2022-07-29T08:03:42.883Z,22.16
2022-07-29T08:06:11.298Z,22.30
2022-07-29T08:08:40.435Z,22.40
2022-07-29T08:11:09.942Z,22.50
2022-07-29T08:13:39.759Z,22.67
2022-07-29T08:16:15.776Z,22.86
2022-07-29T08:18:46.428Z,23.05
2022-07-29T08:21:17.089Z,23.19
2022-07-29T08:23:58.748Z,23.37
2022-07-29T08:26:29.359Z,23.59
2022-07-29T08:28:57.947Z,23.78
2022-07-29T08:31:26.171Z,23.97
2022-07-29T08:33:56.638Z,24.13
2022-07-29T08:36:25.329Z,24.31
2022-07-29T08:38:53.688Z,24.45
2022-07-29T08:41:22.587Z,24.61
2022-07-29T08:43:52.401Z,24.77
2022-07-29T08:46:21.634Z,24.84
2022-07-29T08:48:50.089Z,24.88
2022-07-29T08:51:20.615Z,24.81
2022-07-29T08:53:50.631Z,24.71
2022-07-29T08:56:19.967Z,24.60
2022-07-29T08:58:51.827Z,24.53
2022-07-29T09:01:34.970Z,24.55
2022-07-29T09:04:06.882Z,24.72
2022-07-29T09:06:37.972Z,24.96
2022-07-29T09:09:07.082Z,25.13
2022-07-29T09:11:35.818Z,25.33
2022-07-29T09:14:04.578Z,25.49
2022-07-29T09:16:53.205Z,25.57
2022-07-29T09:19:32.199Z,25.55
2022-07-29T09:22:03.111Z,25.47
2022-07-29T09:24:42.961Z,25.44
2022-07-29T09:27:22.523Z,25.46
2022-07-29T09:29:59.076Z,25.50
2022-07-29T09:32:27.694Z,25.42
2022-07-29T09:35:20.042Z,25.36
2022-07-29T09:37:48.786Z,25.27
2022-07-29T09:40:19.965Z,25.23
2022-07-29T09:42:48.720Z,25.19
2022-07-29T09:45:29.386Z,25.26
2022-07-29T09:48:00.774Z,25.47
2022-07-29T09:50:40.284Z,25.65
2022-07-29T09:53:10.608Z,25.85
2022-07-29T09:55:50.147Z,26.04
2022-07-29T09:58:24.057Z,26.07
2022-07-29T10:00:55.368Z,26.05
2022-07-29T10:03:24.239Z,26.02
2022-07-29T10:06:07.255Z,25.97
2022-07-29T10:08:35.880Z,25.91
2022-07-29T10:11:14.629Z,25.96
2022-07-29T10:13:44.144Z,25.96
2022-07-29T10:16:14.038Z,25.88
2022-07-29T10:18:43.879Z,25.93
2022-07-29T10:21:22.506Z,25.92
2022-07-29T10:24:01.542Z,25.84
2022-07-29T10:26:31.055Z,25.74
2022-07-29T10:28:59.965Z,25.62
2022-07-29T10:31:37.179Z,25.55
2022-07-29T10:34:12.213Z,25.51
2022-07-29T10:36:50.232Z,25.54
2022-07-29T10:39:34.337Z,25.49
2022-07-29T10:42:20.122Z,25.46
2022-07-29T10:44:49.172Z,25.56
2022-07-29T10:47:24.540Z,25.67
2022-07-29T10:50:01.225Z,25.79
2022-07-29T10:52:54.756Z,25.79
2022-07-29T10:55:35.871Z,25.77
2022-07-29T10:58:18.017Z,25.89
2022-07-29T11:00:51.553Z,26.03
2022-07-29T11:03:53.654Z,26.10
2022-07-29T11:06:27.992Z,26.14
2022-07-29T11:09:17.823Z,26.08
2022-07-29T11:11:58.179Z,25.92
2022-07-29T11:14:59.425Z,25.97
2022-07-29T11:17:37.420Z,26.16
2022-07-29T11:20:37.903Z,26.33
2022-07-29T11:23:27.381Z,26.33
2022-07-29T11:26:22.953Z,26.30
2022-07-29T11:28:57.957Z,26.34
2022-07-29T11:31:38.322Z,26.34
2022-07-29T11:34:27.954Z,26.34
2022-07-29T11:37:28.020Z,26.37
2022-07-29T11:40:29.956Z,26.34
2022-07-29T11:43:01.277Z,26.46
2022-07-29T11:45:59.403Z,26.62
2022-07-29T11:48:32.062Z,26.71
2022-07-29T11:51:01.511Z,26.76
2022-07-29T11:53:32.979Z,26.84
2022-07-29T11:56:02.959Z,27.01
2022-07-29T11:58:32.722Z,27.30
2022-07-29T12:01:04.668Z,27.72
2022-07-29T12:03:36.675Z,28.14
2022-07-29T12:06:13.663Z,28.45
2022-07-29T12:08:44.015Z,28.75
2022-07-29T12:11:22.476Z,28.97
2022-07-29T12:13:56.034Z,29.00
2022-07-29T12:16:26.048Z,28.97
2022-07-29T12:19:03.208Z,28.90
2022-07-29T12:21:57.047Z,28.89
2022-07-29T12:24:29.602Z,28.82
2022-07-29T12:26:59.713Z,29.02
2022-07-29T12:29:34.700Z,29.33
2022-07-29T12:32:14.558Z,29.51
2022-07-29T12:34:48.786Z,29.88
2022-07-29T12:37:35.750Z,30.08
2022-07-29T12:40:21.824Z,29.80
2022-07-29T12:43:10.040Z,29.58
2022-07-29T12:45:48.219Z,29.31
2022-07-29T12:48:32.437Z,28.90
2022-07-29T12:51:09.656Z,28.44
2022-07-29T12:53:44.648Z,28.07
2022-07-29T12:56:41.777Z,27.85
2022-07-29T12:59:49.768Z,27.62
2022-07-29T13:02:49.995Z,27.37
2022-07-29T13:05:23.431Z,27.30
2022-07-29T13:07:55.192Z,27.33
2022-07-29T13:10:26.697Z,27.52
2022-07-29T13:13:06.398Z,27.67
2022-07-29T13:15:37.312Z,27.82
2022-07-29T13:18:06.817Z,27.83
2022-07-29T13:20:38.923Z,27.68
2022-07-29T13:23:13.883Z,27.57
2022-07-29T13:25:43.695Z,27.48
2022-07-29T13:28:12.966Z,27.36
2022-07-29T13:30:44.539Z,27.26
2022-07-29T13:33:14.013Z,27.08
2022-07-29T13:35:42.443Z,26.97
2022-07-29T13:38:13.217Z,26.97
2022-07-29T13:40:43.108Z,26.87
2022-07-29T13:43:11.875Z,26.75
2022-07-29T13:45:40.477Z,26.68
2022-07-29T13:48:10.317Z,26.58
2022-07-29T13:50:39.323Z,26.55
2022-07-29T13:53:07.987Z,26.70
2022-07-29T13:55:39.068Z,26.85
2022-07-29T13:58:08.369Z,26.92
2022-07-29T14:00:37.061Z,27.09
2022-07-29T14:03:06.874Z,27.39
2022-07-29T14:05:35.662Z,27.63
2022-07-29T14:08:05.299Z,27.57
2022-07-29T14:10:34.437Z,27.61
2022-07-29T14:13:04.064Z,27.82
2022-07-29T14:15:35.090Z,27.92
2022-07-29T14:18:08.156Z,28.09
2022-07-29T14:20:36.854Z,28.26
2022-07-29T14:23:05.746Z,28.28
2022-07-29T14:25:34.465Z,28.17
2022-07-29T14:28:05.878Z,28.19
2022-07-29T14:30:35.897Z,28.43
2022-07-29T14:33:05.537Z,28.77
2022-07-29T14:35:34.806Z,28.77
2022-07-29T14:38:03.429Z,28.56
2022-07-29T14:40:32.056Z,28.41
2022-07-29T14:43:00.397Z,28.14
2022-07-29T14:45:29.033Z,27.87
2022-07-29T14:47:57.624Z,27.71
2022-07-29T14:50:31.319Z,27.72
2022-07-29T14:52:59.448Z,27.74
2022-07-29T14:55:28.101Z,27.61
2022-07-29T14:58:05.994Z,27.57
2022-07-29T15:00:37.522Z,27.59
2022-07-29T15:03:11.260Z,27.58
2022-07-29T15:05:40.682Z,27.84
2022-07-29T15:08:09.011Z,28.26
2022-07-29T15:10:40.199Z,28.63
2022-07-29T15:13:09.350Z,28.69
2022-07-29T15:15:38.159Z,28.76
2022-07-29T15:18:07.182Z,28.76
2022-07-29T15:20:36.190Z,28.78
2022-07-29T15:23:09.931Z,28.89
2022-07-29T15:25:38.832Z,28.99
2022-07-29T15:28:08.645Z,29.10
2022-07-29T15:30:41.337Z,29.50
2022-07-29T15:33:10.552Z,29.78
2022-07-29T15:35:40.323Z,30.15
2022-07-29T15:38:09.885Z,30.37
2022-07-29T15:40:40.626Z,30.06
2022-07-29T15:43:09.013Z,29.65
2022-07-29T15:45:40.148Z,29.36
2022-07-29T15:48:14.868Z,29.30
2022-07-29T15:50:47.088Z,29.42
2022-07-29T15:53:16.120Z,29.45
2022-07-29T15:55:44.648Z,29.26
2022-07-29T15:58:13.437Z,28.98
2022-07-29T16:00:42.056Z,28.70
2022-07-29T16:03:10.652Z,28.50
2022-07-29T16:05:39.573Z,28.35
2022-07-29T16:08:08.305Z,28.29
2022-07-29T16:10:36.810Z,28.16
2022-07-29T16:13:05.247Z,28.07
2022-07-29T16:15:34.205Z,27.89
2022-07-29T16:18:02.559Z,27.75
2022-07-29T16:20:31.887Z,27.49
2022-07-29T16:23:00.235Z,27.26
2022-07-29T16:25:50.271Z,27.07
2022-07-29T16:28:18.183Z,26.88
2022-07-29T16:30:46.828Z,26.65
2022-07-29T16:33:15.299Z,26.47
2022-07-29T16:35:43.916Z,26.25
2022-07-29T16:38:12.507Z,26.01
2022-07-29T16:40:40.951Z,25.87
2022-07-29T16:43:09.705Z,25.73
2022-07-29T16:45:46.002Z,25.61
2022-07-29T16:48:17.918Z,25.46
2022-07-29T16:50:47.801Z,25.33
2022-07-29T16:53:17.930Z,25.20
2022-07-29T16:55:46.380Z,25.06
2022-07-29T16:58:17.383Z,24.92
2022-07-29T17:00:46.065Z,24.84
2022-07-29T17:03:14.569Z,24.77
2022-07-29T17:05:52.451Z,24.66
2022-07-29T17:08:22.921Z,24.58
2022-07-29T17:10:52.733Z,24.53
2022-07-29T17:13:21.327Z,24.43
2022-07-29T17:15:50.378Z,24.34
2022-07-29T17:18:18.723Z,24.25
2022-07-29T17:20:47.400Z,24.19
2022-07-29T17:23:16.031Z,24.17
2022-07-29T17:25:44.334Z,24.13
2022-07-29T17:28:15.357Z,24.11
2022-07-29T17:30:44.318Z,24.10
2022-07-29T17:33:12.591Z,24.08
2022-07-29T17:35:59.279Z,24.06
2022-07-29T17:38:27.876Z,24.03
2022-07-29T17:40:58.785Z,23.95
2022-07-29T17:43:27.220Z,23.88
2022-07-29T17:45:59.443Z,23.85
2022-07-29T17:48:28.116Z,23.82
2022-07-29T17:50:58.019Z,23.79
2022-07-29T17:53:26.315Z,23.75
2022-07-29T17:55:55.880Z,23.66
2022-07-29T17:58:24.728Z,23.59
2022-07-29T18:00:53.128Z,23.51
2022-07-29T18:03:22.464Z,23.45
2022-07-29T18:05:51.084Z,23.37
2022-07-29T18:08:19.471Z,23.31
2022-07-29T18:10:48.110Z,23.25
2022-07-29T18:13:17.307Z,23.17
2022-07-29T18:15:46.032Z,23.11
2022-07-29T18:18:15.845Z,23.06
2022-07-29T18:20:44.399Z,23.00
2022-07-29T18:23:13.567Z,22.93
2022-07-29T18:25:42.411Z,22.88
2022-07-29T18:28:10.674Z,22.81
2022-07-29T18:30:39.444Z,22.75
2022-07-29T18:33:21.152Z,22.69
2022-07-29T18:36:10.675Z,22.61
2022-07-29T18:38:40.970Z,22.55
2022-07-29T18:41:09.437Z,22.51
2022-07-29T18:43:37.832Z,22.46
2022-07-29T18:46:06.513Z,22.40
2022-07-29T18:48:36.489Z,22.31
2022-07-29T18:51:09.126Z,22.21
2022-07-29T18:53:41.360Z,22.13
2022-07-29T18:56:09.633Z,22.05
2022-07-29T18:58:38.799Z,21.99
2022-07-29T19:01:08.042Z,21.94
2022-07-29T19:03:36.515Z,21.89
2022-07-29T19:06:05.261Z,21.84
2022-07-29T19:08:36.330Z,21.78
2022-07-29T19:11:04.940Z,21.73
2022-07-29T19:13:33.831Z,21.68
2022-07-29T19:16:02.299Z,21.64
2022-07-29T19:18:30.766Z,21.58
2022-07-29T19:20:59.318Z,21.50
2022-07-29T19:23:27.908Z,21.42
2022-07-29T19:25:56.686Z,21.38
2022-07-29T19:28:28.264Z,21.31
2022-07-29T19:30:56.975Z,21.24
2022-07-29T19:33:25.449Z,21.17
2022-07-29T19:35:55.106Z,21.11
2022-07-29T19:38:26.820Z,21.04
2022-07-29T19:40:56.192Z,20.97
2022-07-29T19:43:51.759Z,20.91
2022-07-29T19:46:13.260Z,20.84
2022-07-29T19:48:41.808Z,20.80
2022-07-29T19:51:10.338Z,20.76
2022-07-29T19:53:38.994Z,20.73
2022-07-29T19:56:08.950Z,20.70
2022-07-29T19:58:38.603Z,20.68
2022-07-29T20:01:09.980Z,20.67
2022-07-29T20:03:39.965Z,20.63
2022-07-29T20:06:09.022Z,20.58
2022-07-29T20:08:37.493Z,20.54
2022-07-29T20:11:06.419Z,20.50
2022-07-29T20:13:35.023Z,20.45
2022-07-29T20:16:07.561Z,20.42
2022-07-29T20:18:37.054Z,20.39
2022-07-29T20:21:06.659Z,20.35
2022-07-29T20:23:34.980Z,20.30
2022-07-29T20:26:06.121Z,20.26
2022-07-29T20:28:39.866Z,20.21
2022-07-29T20:31:08.836Z,20.16
2022-07-29T20:33:37.248Z,20.12
2022-07-29T20:36:06.574Z,20.06
2022-07-29T20:38:34.931Z,20.02
2022-07-29T20:41:03.190Z,19.98
2022-07-29T20:43:31.512Z,19.94
2022-07-29T20:46:07.093Z,19.91
2022-07-29T20:48:37.185Z,19.89
2022-07-29T20:51:05.969Z,19.86
2022-07-29T20:53:34.510Z,19.83
2022-07-29T20:56:02.876Z,19.79
2022-07-29T20:58:32.196Z,19.75
2022-07-29T21:01:01.083Z,19.70
2022-07-29T21:03:29.986Z,19.65
2022-07-29T21:05:58.832Z,19.60
2022-07-29T21:08:28.346Z,19.57
2022-07-29T21:10:57.768Z,19.54
2022-07-29T21:13:29.189Z,19.52
2022-07-29T21:16:00.827Z,19.47
2022-07-29T21:18:30.445Z,19.43
2022-07-29T21:21:01.648Z,19.39
2022-07-29T21:23:30.536Z,19.35
2022-07-29T21:25:59.385Z,19.31
2022-07-29T21:28:29.034Z,19.29
2022-07-29T21:31:01.929Z,19.27
2022-07-29T21:33:32.651Z,19.25
2022-07-29T21:36:20.574Z,19.23
2022-07-29T21:38:49.957Z,19.21
2022-07-29T21:41:18.871Z,19.18
2022-07-29T21:43:47.131Z,19.18
2022-07-29T21:46:20.372Z,19.17
2022-07-29T21:48:53.353Z,19.14
2022-07-29T21:51:21.927Z,19.13
2022-07-29T21:53:50.407Z,19.11
2022-07-29T21:56:22.628Z,19.08
2022-07-29T21:58:56.172Z,19.08
2022-07-29T22:01:24.835Z,19.07
2022-07-29T22:03:53.433Z,19.02
2022-07-29T22:06:22.256Z,18.99
2022-07-29T22:08:51.489Z,18.95
2022-07-29T22:11:20.288Z,18.91
2022-07-29T22:13:48.833Z,18.89
2022-07-29T22:16:19.084Z,18.85
2022-07-29T22:18:48.490Z,18.80
2022-07-29T22:21:18.006Z,18.78
2022-07-29T22:23:47.523Z,18.73
2022-07-29T22:26:15.880Z,18.70
2022-07-29T22:28:46.705Z,18.67
2022-07-29T22:31:15.258Z,18.66
2022-07-29T22:33:43.491Z,18.64
2022-07-29T22:36:14.677Z,18.62
2022-07-29T22:38:46.434Z,18.61
2022-07-29T22:41:16.694Z,18.59
2022-07-29T22:43:45.060Z,18.58
2022-07-29T22:46:13.571Z,18.55
2022-07-29T22:48:42.201Z,18.54
2022-07-29T22:51:10.635Z,18.54
2022-07-29T22:53:41.927Z,18.53
2022-07-29T22:56:10.317Z,18.54
2022-07-29T22:58:40.589Z,18.54
2022-07-29T23:01:08.934Z,18.55
2022-07-29T23:03:38.685Z,18.55
2022-07-29T23:06:09.527Z,18.55
2022-07-29T23:08:38.220Z,18.54
2022-07-29T23:11:06.584Z,18.53
2022-07-29T23:13:34.904Z,18.53
2022-07-29T23:16:03.749Z,18.52
2022-07-29T23:18:33.814Z,18.50
2022-07-29T23:21:02.078Z,18.50
2022-07-29T23:23:33.503Z,18.49
2022-07-29T23:26:04.031Z,18.49
2022-07-29T23:28:32.439Z,18.49
2022-07-29T23:31:01.017Z,18.49
2022-07-29T23:33:29.595Z,18.48
2022-07-29T23:35:57.989Z,18.47
2022-07-29T23:38:26.503Z,18.45
2022-07-29T23:40:54.975Z,18.43
2022-07-29T23:43:23.623Z,18.42
2022-07-29T23:45:53.642Z,18.41
2022-07-29T23:48:22.341Z,18.40
2022-07-29T23:50:50.805Z,18.39
2022-07-29T23:53:19.706Z,18.36
2022-07-29T23:55:48.204Z,18.36
2022-07-29T23:58:16.761Z,18.33
